Taos Ski Valley, NM

6:42 PM MDT on May 24, 2015 (GMT -0600)
Los Alamos | | Change Station
CLOSE
Current Station
Airport
Location: Los Alamos,
Elevation: 7172 ft
Nearby Weather Stations

Elev 7172 ft 35.88 °N, 106.27 °W | Updated 27 minutes ago

Partly Cloudy
Partly Cloudy
56 °F
Feels Like 56 °F
N
5
Wind Variable Wind from WNW

Today
High -- | Low -- °F
--% Chance of Precip.
Yesterday
High -- | Low -- °F
Precip. -- in
5:49 AM 8:09 PM
Waxing Crescent, 43% visible
Pressure 29.97 in
Visibility 10.0 miles
Clouds Scattered Clouds 5000 ft
Mostly Cloudy 11000 ft
Dew Point 36 °F
Humidity 47%
Rainfall 0.00 in
Snow Depth Not available.
UV 1 out of 12
Pollen 8.30 out of 12
Air Quality Not available.
Flu Activity Local Activity
METAR KLAM 250015Z AUTO 29004KT 10SM SCT050 BKN110 13/02 A2997 RMK AO2 T01340024

More Conditions Fewer Conditions

Pressure 29.97 in
Visibility 10.0 miles
Clouds Scattered Clouds 5000 ft
Mostly Cloudy 11000 ft
Dew Point 36 °F
Humidity 47%
Rainfall 0.00 in
Snow Depth Not available.
UV 1 out of 12
Pollen 8.30 out of 12
Air Quality Not available.
Flu Activity Local Activity
METAR KLAM 250015Z AUTO 29004KT 10SM SCT050 BKN110 13/02 A2997 RMK AO2 T01340024

More Conditions Fewer Conditions

Nowcast | as of 5:41 PM MDT on May 24, 2015

Through sunset a few light showers and occasionally a short lived thunderstorm or two will move to the east and southeast at 15 to 20 mph across locations mainly west of Interstate 25. Up to a tenth of an inch of rain is possible with the stronger showers and thunderstorms...though most will produce just a trace to a few hundredths of an inch. Brief and sudden wind gusts up to 40 mph along with a lightning strike or two are also possible with the stronger showers and any thunderstorm.

×

10-Day Weather Forecast

Almanac

Astronomy

May. 24, 2015 Rise Set
Actual Time
Civil Twilight
Nautical Twilight
Astronomical Twilight
Moon
Length of Visible Light
Length of Day
Tomorrow will be .
, % of the Moon is Illuminated

Today's Extremes

State Highs State Lows

Community

WunderPhotos

Upload Photos

1,823,907 photos uploaded!

WunderBlogs® & News

Nearby

Air Quality

  Air Quality AQ Index Pollutant
Not available.

Snow Depth

Station Depth Elevation

Earthquake Activity

City Distance Mag. Time & Date
Minimum magnitude displayed is 2.5.

Coastal Water Temperatures

Place Temperature

Stations

Nearby Weather Stations

Station Location Temp. Windchill Dew Point Humidity Wind Precip. Elev Updated Type